Gregory, Michigan
Current Conditions -  °F | °C
As of 6:15 PM on Tuesday 25 Nov 2014 (Local Time) from KOZW Reporting Station
Overcast Overcast  
Wind Chill: 23°   Ceiling: 2100
Heat Index: 30°   Visibility: 10mi
Dew Point: 23°   Wind: 7mph
Humidity: 77%   Direction: 240°WSW
Pressure: 30.12"   Gusts: NA
Location:  42.46°N, 84.08°W
Report Text: KOZW 252315Z AUTO 24006KT 10SM OVC021 M01/M05 A3012 RMK AO2 T10121048
Loading
Personal Weather Stations






























Interactive Weather Map New forecast layout! Learn more

10-Day Weather Forecast

Advertisements
Track Severe Weather on mobile